createdAt,value
2019-02-24T00:00:20.316Z,70.57
2019-02-24T00:01:20.299Z,70.95
2019-02-24T00:02:20.282Z,70.95
2019-02-24T00:03:20.255Z,70.67
2019-02-24T00:04:20.241Z,70.57
2019-02-24T00:05:20.221Z,70.76
2019-02-24T00:06:20.194Z,70.86
2019-02-24T00:07:20.176Z,70.95
2019-02-24T00:08:20.149Z,71.04
2019-02-24T00:09:20.135Z,71.71
2019-02-24T00:10:20.113Z,71.52
2019-02-24T00:11:20.085Z,71.52
2019-02-24T00:12:20.065Z,71.62
2019-02-24T00:13:20.052Z,71.62
2019-02-24T00:14:20.024Z,72.19
2019-02-24T00:15:20.009Z,71.90
2019-02-24T00:16:19.991Z,71.52
2019-02-24T00:17:19.970Z,71.52
2019-02-24T00:18:19.941Z,71.90
2019-02-24T00:19:19.924Z,72.09
2019-02-24T00:20:19.898Z,72.00
2019-02-24T00:21:19.924Z,71.90
2019-02-24T00:22:19.864Z,72.00
2019-02-24T00:23:19.835Z,72.19
2019-02-24T00:24:19.827Z,72.19
2019-02-24T00:25:19.799Z,72.38
2019-02-24T00:26:19.780Z,72.75
2019-02-24T00:27:19.753Z,72.28
2019-02-24T00:28:19.731Z,72.19
2019-02-24T00:29:19.710Z,72.66
2019-02-24T00:30:19.691Z,72.47
2019-02-24T00:31:19.672Z,72.47
2019-02-24T00:32:19.647Z,73.42
2019-02-24T00:33:19.637Z,73.04
2019-02-24T00:34:19.603Z,73.42
2019-02-24T00:35:19.589Z,73.42
2019-02-24T00:36:19.566Z,72.66
2019-02-24T00:37:19.551Z,73.33
2019-02-24T00:38:20.850Z,73.33
2019-02-24T00:39:19.497Z,73.90
2019-02-24T00:40:19.483Z,73.99
2019-02-24T00:41:19.464Z,73.99
2019-02-24T00:42:19.443Z,74.15
2019-02-24T00:43:19.413Z,74.62
2019-02-24T00:44:19.398Z,75.47
2019-02-24T00:45:19.382Z,75.00
2019-02-24T00:46:19.356Z,74.90
2019-02-24T00:47:19.340Z,74.81
2019-02-24T00:48:19.311Z,74.62
2019-02-24T00:49:19.293Z,75.00
2019-02-24T00:50:19.265Z,74.90
2019-02-24T00:51:19.250Z,75.00
2019-02-24T00:52:19.224Z,75.38
2019-02-24T00:53:19.202Z,75.09
2019-02-24T00:54:19.179Z,75.76
2019-02-24T00:55:19.163Z,75.57
2019-02-24T00:56:19.141Z,75.76
2019-02-24T00:57:19.112Z,75.47
2019-02-24T00:58:19.095Z,76.14
2019-02-24T00:59:19.073Z,76.42
2019-02-24T01:00:19.056Z,76.32
2019-02-24T01:01:19.030Z,76.04
2019-02-24T01:02:19.009Z,76.04
2019-02-24T01:03:18.996Z,76.04
2019-02-24T01:04:18.968Z,77.09
2019-02-24T01:05:18.945Z,76.99
2019-02-24T01:06:18.924Z,76.99
2019-02-24T01:07:18.958Z,76.80
2019-02-24T01:08:18.882Z,76.80
2019-02-24T01:09:18.868Z,77.47
2019-02-24T01:10:18.842Z,77.37
2019-02-24T01:11:18.816Z,76.80
2019-02-24T01:12:18.795Z,77.18
2019-02-24T01:13:18.773Z,77.09
2019-02-24T01:14:18.757Z,77.37
2019-02-24T01:15:18.740Z,77.09
2019-02-24T01:16:18.709Z,77.18
2019-02-24T01:17:18.687Z,77.18
2019-02-24T01:18:18.671Z,77.37
2019-02-24T01:19:18.654Z,77.18
2019-02-24T01:20:18.623Z,77.56
2019-02-24T01:21:18.601Z,77.84
2019-02-24T01:22:18.585Z,78.03
2019-02-24T01:23:18.565Z,78.13
2019-02-24T01:24:18.545Z,78.70
2019-02-24T01:25:18.517Z,78.61
2019-02-24T01:26:18.495Z,78.70
2019-02-24T01:27:18.481Z,78.51
2019-02-24T01:28:25.108Z,78.80
2019-02-24T01:29:18.435Z,78.89
2019-02-24T01:30:18.415Z,79.17
2019-02-24T01:31:18.399Z,79.27
2019-02-24T01:32:18.394Z,79.17
2019-02-24T01:33:18.358Z,79.27
2019-02-24T01:34:18.324Z,79.08
2019-02-24T01:35:18.304Z,79.17
2019-02-24T01:36:18.281Z,78.80
2019-02-24T01:37:18.268Z,78.89
2019-02-24T01:38:18.239Z,79.17
2019-02-24T01:39:18.220Z,79.27
2019-02-24T01:40:18.198Z,79.08
2019-02-24T01:41:18.176Z,79.17
2019-02-24T01:42:18.153Z,79.17
2019-02-24T01:43:18.134Z,79.08
2019-02-24T01:44:18.112Z,78.19
2019-02-24T01:45:18.097Z,78.47
2019-02-24T01:46:18.069Z,78.95
2019-02-24T01:47:18.055Z,79.42
2019-02-24T01:48:18.026Z,79.99
2019-02-24T01:49:18.009Z,79.80
2019-02-24T01:50:17.984Z,79.23
2019-02-24T01:51:17.966Z,79.33
2019-02-24T01:52:17.945Z,79.33
2019-02-24T01:53:17.918Z,79.52
2019-02-24T01:54:17.895Z,79.52
2019-02-24T01:55:17.875Z,79.42
2019-02-24T01:56:17.860Z,79.71
2019-02-24T01:57:17.831Z,80.08
2019-02-24T01:58:17.809Z,80.18
2019-02-24T01:59:17.788Z,80.27
2019-02-24T02:00:17.766Z,80.46
2019-02-24T02:01:17.747Z,80.18
2019-02-24T02:02:17.724Z,80.18
2019-02-24T02:03:17.704Z,80.27
2019-02-24T02:04:17.687Z,80.37
2019-02-24T02:05:17.660Z,80.37
2019-02-24T02:06:17.637Z,80.37
2019-02-24T02:07:17.615Z,80.65
2019-02-24T02:08:17.595Z,80.46
2019-02-24T02:09:17.576Z,80.46
2019-02-24T02:10:17.549Z,80.37
2019-02-24T02:11:17.529Z,80.37
2019-02-24T02:12:17.517Z,80.84
2019-02-24T02:13:17.493Z,80.37
2019-02-24T02:14:17.469Z,80.37
2019-02-24T02:15:17.443Z,80.46
2019-02-24T02:16:17.430Z,79.90
2019-02-24T02:17:17.398Z,80.27
2019-02-24T02:18:17.432Z,80.46
2019-02-24T02:19:17.357Z,80.18
2019-02-24T02:20:17.335Z,80.56
2019-02-24T02:21:17.322Z,80.46
2019-02-24T02:22:17.291Z,80.27
2019-02-24T02:23:17.271Z,80.84
2019-02-24T02:24:17.253Z,80.46
2019-02-24T02:25:17.231Z,80.27
2019-02-24T02:26:17.211Z,80.37
2019-02-24T02:27:17.187Z,80.75
2019-02-24T02:28:17.162Z,81.04
2019-02-24T02:29:17.141Z,80.94
2019-02-24T02:30:17.119Z,81.13
2019-02-24T02:31:17.097Z,81.32
2019-02-24T02:32:17.074Z,81.66
2019-02-24T02:33:17.053Z,82.55
2019-02-24T02:34:17.035Z,82.51
2019-02-24T02:35:17.013Z,82.84
2019-02-24T02:36:16.990Z,82.98
2019-02-24T02:37:16.969Z,83.36
2019-02-24T02:38:16.947Z,83.22
2019-02-24T02:39:16.933Z,83.40
2019-02-24T02:40:16.906Z,82.65
2019-02-24T02:41:16.886Z,82.55
2019-02-24T02:42:16.866Z,82.46
2019-02-24T02:43:16.836Z,81.70
2019-02-24T02:44:16.814Z,81.98
2019-02-24T02:45:16.799Z,81.70
2019-02-24T02:46:16.769Z,81.32
2019-02-24T02:47:16.748Z,81.60
2019-02-24T02:48:16.726Z,80.94
2019-02-24T02:49:16.703Z,81.23
2019-02-24T02:50:16.682Z,81.32
2019-02-24T02:51:16.662Z,81.70
2019-02-24T02:52:16.643Z,81.79
2019-02-24T02:53:16.616Z,81.70
2019-02-24T02:54:16.595Z,81.70
2019-02-24T02:55:16.574Z,81.70
2019-02-24T02:56:16.552Z,82.55
2019-02-24T02:57:16.528Z,83.12
2019-02-24T02:58:16.509Z,83.31
2019-02-24T02:59:16.484Z,83.31
2019-02-24T03:00:16.467Z,83.97
2019-02-24T03:01:16.439Z,83.78
2019-02-24T03:02:24.067Z,84.07
2019-02-24T03:03:16.400Z,83.97
2019-02-24T03:04:16.379Z,84.07
2019-02-24T03:05:16.354Z,84.07
2019-02-24T03:06:16.329Z,84.45
2019-02-24T03:07:16.308Z,83.69
2019-02-24T03:08:16.286Z,83.97
2019-02-24T03:09:16.265Z,84.07
2019-02-24T03:10:16.244Z,84.22
2019-02-24T03:11:16.224Z,84.78
2019-02-24T03:12:16.196Z,84.98
2019-02-24T03:13:16.175Z,84.41
2019-02-24T03:14:16.156Z,84.98
2019-02-24T03:15:16.133Z,85.07
2019-02-24T03:16:16.158Z,85.17
2019-02-24T03:17:16.098Z,85.36
2019-02-24T03:18:16.066Z,85.83
2019-02-24T03:19:16.043Z,85.64
2019-02-24T03:20:16.023Z,85.64
2019-02-24T03:21:16.000Z,85.64
2019-02-24T03:22:15.977Z,85.74
2019-02-24T03:23:15.954Z,85.17
2019-02-24T03:24:15.939Z,84.98
2019-02-24T03:25:15.926Z,84.98
2019-02-24T03:26:15.887Z,84.98
2019-02-24T03:27:15.869Z,84.98
2019-02-24T03:28:15.845Z,84.78
2019-02-24T03:29:15.825Z,84.69
2019-02-24T03:30:15.804Z,84.88
2019-02-24T03:31:15.784Z,84.50
2019-02-24T03:32:15.765Z,84.69
2019-02-24T03:33:15.818Z,84.22
2019-02-24T03:34:15.715Z,84.12
2019-02-24T03:35:15.696Z,84.31
2019-02-24T03:36:15.669Z,84.03
2019-02-24T03:37:15.645Z,83.84
2019-02-24T03:38:15.635Z,83.74
2019-02-24T03:39:15.616Z,84.22
2019-02-24T03:40:15.582Z,84.12
2019-02-24T03:41:15.561Z,83.65
2019-02-24T03:42:15.540Z,84.03
2019-02-24T03:43:15.529Z,84.12
2019-02-24T03:44:15.499Z,83.84
2019-02-24T03:45:15.473Z,83.84
2019-02-24T03:46:15.448Z,83.17
2019-02-24T03:47:15.427Z,83.08
2019-02-24T03:48:15.408Z,83.46
2019-02-24T03:49:15.383Z,83.08
2019-02-24T03:50:15.373Z,83.36
2019-02-24T03:51:15.339Z,82.98
2019-02-24T03:52:15.318Z,83.27
2019-02-24T03:53:15.293Z,83.46
2019-02-24T03:54:15.273Z,83.36
2019-02-24T03:55:15.249Z,83.46
2019-02-24T03:56:15.233Z,82.70
2019-02-24T03:57:15.206Z,82.70
2019-02-24T03:58:15.190Z,82.70
2019-02-24T03:59:15.453Z,82.04
2019-02-24T04:00:15.141Z,82.70
2019-02-24T04:01:15.121Z,82.70
2019-02-24T04:02:15.096Z,83.22
2019-02-24T04:03:15.072Z,82.93
2019-02-24T04:04:15.051Z,83.12
2019-02-24T04:05:15.033Z,82.36
2019-02-24T04:06:15.006Z,82.65
2019-02-24T04:07:14.986Z,82.13
2019-02-24T04:08:14.962Z,81.85
2019-02-24T04:09:14.942Z,81.85
2019-02-24T04:10:14.917Z,81.56
2019-02-24T04:11:14.903Z,82.51
2019-02-24T04:12:14.884Z,82.23
2019-02-24T04:13:14.854Z,83.08
2019-02-24T04:14:14.834Z,82.89
2019-02-24T04:15:14.815Z,83.36
2019-02-24T04:16:14.791Z,83.36
2019-02-24T04:17:14.767Z,84.12
2019-02-24T04:18:14.743Z,83.17
2019-02-24T04:19:14.722Z,83.27
2019-02-24T04:20:14.701Z,83.94
2019-02-24T04:21:14.678Z,83.94
2019-02-24T04:22:14.656Z,84.03
2019-02-24T04:23:14.638Z,84.03
2019-02-24T04:24:14.631Z,84.03
2019-02-24T04:25:14.591Z,84.41
2019-02-24T04:26:14.569Z,84.26
2019-02-24T04:27:14.545Z,84.26
2019-02-24T04:28:14.524Z,84.36
2019-02-24T04:29:14.501Z,83.88
2019-02-24T04:30:14.480Z,84.07
2019-02-24T04:31:14.457Z,84.26
2019-02-24T04:32:14.434Z,84.03
2019-02-24T04:33:14.411Z,84.03
2019-02-24T04:34:14.387Z,83.74
2019-02-24T04:35:14.370Z,84.41
2019-02-24T04:36:14.346Z,84.69
2019-02-24T04:37:14.321Z,84.78
2019-02-24T04:38:15.969Z,85.45
2019-02-24T04:39:14.275Z,85.07
2019-02-24T04:40:14.255Z,84.69
2019-02-24T04:41:14.233Z,84.78
2019-02-24T04:42:14.212Z,85.45
2019-02-24T04:43:14.189Z,85.07
2019-02-24T04:44:14.169Z,85.55
2019-02-24T04:45:14.144Z,85.55
2019-02-24T04:46:14.122Z,86.11
2019-02-24T04:47:14.101Z,85.93
2019-02-24T04:48:14.081Z,85.93
2019-02-24T04:49:14.062Z,85.93
2019-02-24T04:50:14.032Z,86.11
2019-02-24T04:51:14.010Z,85.83
2019-02-24T04:52:13.992Z,86.11
2019-02-24T04:53:13.965Z,86.40
2019-02-24T04:54:13.944Z,86.21
2019-02-24T04:55:13.922Z,86.21
2019-02-24T04:56:13.907Z,86.40
2019-02-24T04:57:13.884Z,86.11
2019-02-24T04:58:13.863Z,86.11
2019-02-24T04:59:13.830Z,86.40
2019-02-24T05:00:13.809Z,86.21
2019-02-24T05:01:13.786Z,85.74
2019-02-24T05:02:13.764Z,85.55
2019-02-24T05:03:13.746Z,86.02
2019-02-24T05:04:13.719Z,85.93
2019-02-24T05:05:13.701Z,85.36
2019-02-24T05:06:13.676Z,85.45
2019-02-24T05:07:13.654Z,85.26
2019-02-24T05:08:13.632Z,85.31
2019-02-24T05:09:13.613Z,85.83
2019-02-24T05:10:13.587Z,85.55
2019-02-24T05:11:13.577Z,85.74
2019-02-24T05:12:13.550Z,85.93
2019-02-24T05:13:13.518Z,85.45
2019-02-24T05:14:13.498Z,85.17
2019-02-24T05:15:13.476Z,84.84
2019-02-24T05:16:13.453Z,85.03
2019-02-24T05:17:13.434Z,84.94
2019-02-24T05:18:13.411Z,85.41
2019-02-24T05:19:13.387Z,85.03
2019-02-24T05:20:13.363Z,85.41
2019-02-24T05:21:13.342Z,85.78
2019-02-24T05:22:13.317Z,85.60
2019-02-24T05:23:13.299Z,86.11
2019-02-24T05:24:13.273Z,85.83
2019-02-24T05:25:13.251Z,86.16
2019-02-24T05:26:13.228Z,85.93
2019-02-24T05:27:13.209Z,86.30
2019-02-24T05:28:13.184Z,85.97
2019-02-24T05:29:13.165Z,86.11
2019-02-24T05:30:13.140Z,85.93
2019-02-24T05:31:13.117Z,86.21
2019-02-24T05:32:13.098Z,86.11
2019-02-24T05:33:13.077Z,86.11
2019-02-24T05:34:13.052Z,86.11
2019-02-24T05:35:13.025Z,86.21
2019-02-24T05:36:13.010Z,86.16
2019-02-24T05:37:12.983Z,86.45
2019-02-24T05:38:12.958Z,85.83
2019-02-24T05:39:12.938Z,86.11
2019-02-24T05:40:12.915Z,85.69
2019-02-24T05:41:12.894Z,86.68
2019-02-24T05:42:12.873Z,86.97
2019-02-24T05:43:12.846Z,86.45
2019-02-24T05:44:12.847Z,86.55
2019-02-24T05:45:12.806Z,86.64
2019-02-24T05:46:12.781Z,86.55
2019-02-24T05:47:12.756Z,87.16
2019-02-24T05:48:12.745Z,86.93
2019-02-24T05:49:12.718Z,87.02
2019-02-24T05:50:12.689Z,87.02
2019-02-24T05:51:12.668Z,86.93
2019-02-24T05:52:12.649Z,87.02
2019-02-24T05:53:12.626Z,86.93
2019-02-24T05:54:12.599Z,86.64
2019-02-24T05:55:12.578Z,86.45
2019-02-24T05:56:12.559Z,86.16
2019-02-24T05:57:12.534Z,86.74
2019-02-24T05:58:12.510Z,86.16
2019-02-24T05:59:12.492Z,86.83
2019-02-24T06:00:12.470Z,86.74
2019-02-24T06:01:12.445Z,87.12
2019-02-24T06:02:12.425Z,87.02
2019-02-24T06:03:12.400Z,87.21
2019-02-24T06:04:12.378Z,88.35
2019-02-24T06:05:12.360Z,88.35
2019-02-24T06:06:12.334Z,88.63
2019-02-24T06:07:12.311Z,89.39
2019-02-24T06:08:12.285Z,89.29
2019-02-24T06:09:12.266Z,88.73
2019-02-24T06:10:12.242Z,88.25
2019-02-24T06:11:12.220Z,88.82
2019-02-24T06:12:12.197Z,89.01
2019-02-24T06:13:12.172Z,89.20
2019-02-24T06:14:12.155Z,89.91
2019-02-24T06:15:12.129Z,90.48
2019-02-24T06:16:12.116Z,91.33
2019-02-24T06:17:12.083Z,91.52
2019-02-24T06:18:12.066Z,92.19
2019-02-24T06:19:12.038Z,93.46
2019-02-24T06:20:12.015Z,94.51
2019-02-24T06:21:11.990Z,95.83
2019-02-24T06:22:11.974Z,96.78
2019-02-24T06:23:11.947Z,97.73
2019-02-24T06:24:11.925Z,98.49
2019-02-24T06:25:11.910Z,98.77
2019-02-24T06:26:11.878Z,99.43
2019-02-24T06:27:11.860Z,99.15
2019-02-24T06:28:11.832Z,99.05
2019-02-24T06:29:11.807Z,98.77
2019-02-24T06:30:11.786Z,98.35
2019-02-24T06:31:11.764Z,97.30
2019-02-24T06:32:11.738Z,96.73
2019-02-24T06:33:11.725Z,95.50
2019-02-24T06:34:11.694Z,95.22
2019-02-24T06:35:11.674Z,94.74
2019-02-24T06:36:11.645Z,94.37
2019-02-24T06:37:11.622Z,94.51
2019-02-24T06:38:11.607Z,93.13
2019-02-24T06:39:11.576Z,92.61
2019-02-24T06:40:11.556Z,92.04
2019-02-24T06:41:11.555Z,91.38
2019-02-24T06:42:11.510Z,91.71
2019-02-24T06:43:11.484Z,92.04
2019-02-24T06:44:11.463Z,92.61
2019-02-24T06:45:11.437Z,92.23
2019-02-24T06:46:11.416Z,92.04
2019-02-24T06:47:11.397Z,91.85
2019-02-24T06:48:11.371Z,91.85
2019-02-24T06:49:11.347Z,91.57
2019-02-24T06:50:11.333Z,91.47
2019-02-24T06:51:11.304Z,91.47
2019-02-24T06:52:11.280Z,91.38
2019-02-24T06:53:11.256Z,91.57
2019-02-24T06:54:11.236Z,91.09
2019-02-24T06:55:11.214Z,90.76
2019-02-24T06:56:11.191Z,89.86
2019-02-24T06:57:11.167Z,87.68
2019-02-24T06:58:11.145Z,86.30
2019-02-24T06:59:11.124Z,83.97
2019-02-24T07:00:14.097Z,81.59
2019-02-24T07:01:11.085Z,79.92
2019-02-24T07:02:11.070Z,77.83
2019-02-24T07:03:11.046Z,76.03
2019-02-24T07:04:11.028Z,75.30
2019-02-24T07:05:11.012Z,73.97
2019-02-24T07:06:10.990Z,73.40
2019-02-24T07:07:10.970Z,72.30
2019-02-24T07:08:10.954Z,70.97
2019-02-24T07:09:10.936Z,70.49
2019-02-24T07:10:10.917Z,70.20
2019-02-24T07:11:10.907Z,68.43
2019-02-24T07:12:10.887Z,68.15
2019-02-24T07:13:10.871Z,67.19
2019-02-24T07:14:10.854Z,66.62
2019-02-24T07:15:10.891Z,66.18
2019-02-24T07:16:10.833Z,65.03
2019-02-24T07:17:10.813Z,64.56
2019-02-24T07:18:10.797Z,63.89
2019-02-24T07:19:10.784Z,63.26
2019-02-24T07:20:10.772Z,62.88
2019-02-24T07:21:10.764Z,62.30
2019-02-24T07:22:10.746Z,61.76
2019-02-24T07:23:10.733Z,60.81
2019-02-24T07:24:10.722Z,61.00
2019-02-24T07:25:10.707Z,59.95
2019-02-24T07:26:10.700Z,60.27
2019-02-24T07:27:10.699Z,58.94
2019-02-24T07:28:10.677Z,58.36
2019-02-24T07:29:10.662Z,58.07
2019-02-24T07:30:10.652Z,57.06
2019-02-24T07:31:10.655Z,57.06
2019-02-24T07:32:10.631Z,55.46
2019-02-24T07:33:12.379Z,56.04
2019-02-24T07:34:10.612Z,55.18
2019-02-24T07:35:10.602Z,54.50
2019-02-24T07:36:10.597Z,53.84
2019-02-24T07:37:12.989Z,53.10
2019-02-24T07:38:10.575Z,52.81
2019-02-24T07:39:10.564Z,52.34
2019-02-24T07:40:10.557Z,52.17
2019-02-24T07:41:10.550Z,51.41
2019-02-24T07:42:10.550Z,51.81
2019-02-24T07:43:10.531Z,50.95
2019-02-24T07:44:10.523Z,49.90
2019-02-24T07:45:10.521Z,49.80
2019-02-24T07:46:10.508Z,49.90
2019-02-24T07:47:10.502Z,49.16
2019-02-24T07:48:10.502Z,48.59
2019-02-24T07:49:10.485Z,47.27
2019-02-24T07:50:10.477Z,45.86
2019-02-24T07:51:12.358Z,45.98
2019-02-24T07:52:10.469Z,45.40
2019-02-24T07:53:10.458Z,45.23
2019-02-24T07:54:10.458Z,43.34
2019-02-24T07:55:10.446Z,42.57
2019-02-24T07:56:10.442Z,41.63
2019-02-24T07:57:10.438Z,40.96
2019-02-24T07:58:10.429Z,40.89
2019-02-24T07:59:10.424Z,39.93
2019-02-24T08:00:10.422Z,39.08
2019-02-24T08:01:10.418Z,38.41
2019-02-24T08:02:10.407Z,38.60
2019-02-24T08:03:10.405Z,38.62
2019-02-24T08:04:10.404Z,37.95
2019-02-24T08:05:10.395Z,37.47
2019-02-24T08:06:10.401Z,37.08
2019-02-24T08:07:10.392Z,36.99
2019-02-24T08:08:16.282Z,36.99
2019-02-24T08:09:10.379Z,37.20
2019-02-24T08:10:10.376Z,36.22
2019-02-24T08:11:10.374Z,36.53
2019-02-24T08:12:10.368Z,37.01
2019-02-24T08:13:10.375Z,36.43
2019-02-24T08:14:10.365Z,36.20
2019-02-24T08:15:10.372Z,36.51
2019-02-24T08:16:10.356Z,36.49
2019-02-24T08:17:10.351Z,36.99
2019-02-24T08:18:10.350Z,36.51
2019-02-24T08:19:10.349Z,37.08
2019-02-24T08:20:10.344Z,37.27
2019-02-24T08:21:10.341Z,38.02
2019-02-24T08:22:10.337Z,38.87
2019-02-24T08:23:11.061Z,38.79
2019-02-24T08:24:10.336Z,38.54
2019-02-24T08:25:10.341Z,37.60
2019-02-24T08:26:10.333Z,36.45
2019-02-24T08:27:10.334Z,36.22
2019-02-24T08:28:10.337Z,36.24
2019-02-24T08:29:10.322Z,35.93
2019-02-24T08:30:10.321Z,35.71
2019-02-24T08:31:10.329Z,37.99
2019-02-24T08:32:10.320Z,38.39
2019-02-24T08:33:10.315Z,37.89
2019-02-24T08:34:10.319Z,38.60
2019-02-24T08:35:10.315Z,37.35
2019-02-24T08:36:10.313Z,36.99
2019-02-24T08:37:10.309Z,36.20
2019-02-24T08:38:10.307Z,36.71
2019-02-24T08:39:10.305Z,38.96
2019-02-24T08:40:10.315Z,40.78
2019-02-24T08:41:10.300Z,41.00
2019-02-24T08:42:10.304Z,40.35
2019-02-24T08:43:10.296Z,40.00
2019-02-24T08:44:10.298Z,38.49
2019-02-24T08:45:10.297Z,37.99
2019-02-24T08:46:10.289Z,37.15
2019-02-24T08:47:10.292Z,36.41
2019-02-24T08:48:10.286Z,35.93
2019-02-24T08:49:10.281Z,35.28
2019-02-24T08:50:10.281Z,34.53
2019-02-24T08:51:10.285Z,33.85
2019-02-24T08:52:10.287Z,33.39
2019-02-24T08:53:10.287Z,33.10
2019-02-24T08:54:10.276Z,32.34
2019-02-24T08:55:10.274Z,32.36
2019-02-24T08:56:10.274Z,31.22
2019-02-24T08:57:10.271Z,29.61
2019-02-24T08:58:10.270Z,28.37
2019-02-24T08:59:10.270Z,28.47
2019-02-24T09:00:10.269Z,28.64
2019-02-24T09:01:10.267Z,29.13
2019-02-24T09:02:10.266Z,29.32
2019-02-24T09:03:10.264Z,29.22
2019-02-24T09:04:10.267Z,28.66
2019-02-24T09:05:10.270Z,28.09
2019-02-24T09:06:10.261Z,26.45
2019-02-24T09:07:10.261Z,26.08
2019-02-24T09:08:10.261Z,26.08
2019-02-24T09:09:10.260Z,25.10
2019-02-24T09:10:10.257Z,26.07
2019-02-24T09:11:10.279Z,26.45
2019-02-24T09:12:10.258Z,26.07
2019-02-24T09:13:10.257Z,26.07
2019-02-24T09:14:10.260Z,26.28
2019-02-24T09:15:10.257Z,26.28
2019-02-24T09:16:10.260Z,26.56
2019-02-24T09:17:10.251Z,26.18
2019-02-24T09:18:10.252Z,25.20
2019-02-24T09:19:10.253Z,25.20
2019-02-24T09:20:10.254Z,24.16
2019-02-24T09:21:10.262Z,23.65
2019-02-24T09:22:10.251Z,25.26
2019-02-24T09:23:10.251Z,26.03
2019-02-24T09:24:10.250Z,26.80
2019-02-24T09:25:10.248Z,26.72
2019-02-24T09:26:10.248Z,26.14
2019-02-24T09:27:10.248Z,26.54
2019-02-24T09:28:10.246Z,26.54
2019-02-24T09:29:10.248Z,26.26
2019-02-24T09:30:10.246Z,26.08
2019-02-24T09:31:10.246Z,25.31
2019-02-24T09:32:10.245Z,25.12
2019-02-24T09:33:10.246Z,24.65
2019-02-24T09:34:10.241Z,24.35
2019-02-24T09:35:10.239Z,23.77
2019-02-24T09:36:10.248Z,24.35
2019-02-24T09:37:10.249Z,24.34
2019-02-24T09:38:10.239Z,25.12
2019-02-24T09:39:10.248Z,25.40
2019-02-24T09:40:10.233Z,24.24
2019-02-24T09:41:10.231Z,23.87
2019-02-24T09:42:10.240Z,23.68
2019-02-24T09:43:10.229Z,23.57
2019-02-24T09:44:10.230Z,24.05
2019-02-24T09:45:10.228Z,24.24
2019-02-24T09:46:10.225Z,23.96
2019-02-24T09:47:10.229Z,23.38
2019-02-24T09:48:10.229Z,23.38
2019-02-24T09:49:10.219Z,23.47
2019-02-24T09:50:10.233Z,23.86
2019-02-24T09:51:10.220Z,23.66
2019-02-24T09:52:10.227Z,25.13
2019-02-24T09:53:10.216Z,24.37
2019-02-24T09:54:10.213Z,23.50
2019-02-24T09:55:10.213Z,23.90
2019-02-24T09:56:10.207Z,22.82
2019-02-24T09:57:10.209Z,23.59
2019-02-24T09:58:10.211Z,23.79
2019-02-24T09:59:10.198Z,24.46
2019-02-24T10:00:10.198Z,24.26
2019-02-24T10:01:11.094Z,24.55
2019-02-24T10:02:10.193Z,23.79
2019-02-24T10:03:10.193Z,24.16
2019-02-24T10:04:10.188Z,24.45
2019-02-24T10:05:10.189Z,25.51
2019-02-24T10:06:10.180Z,23.77
2019-02-24T10:07:10.184Z,23.39
2019-02-24T10:08:10.179Z,23.69
2019-02-24T10:09:10.174Z,23.88
2019-02-24T10:10:10.169Z,23.90
2019-02-24T10:11:10.169Z,22.92
2019-02-24T10:12:10.172Z,21.27
2019-02-24T10:13:10.163Z,21.47
2019-02-24T10:14:10.158Z,21.38
2019-02-24T10:15:10.157Z,20.99
2019-02-24T10:16:10.155Z,21.54
2019-02-24T10:17:10.146Z,22.31
2019-02-24T10:18:10.144Z,22.50
2019-02-24T10:19:10.142Z,22.99
2019-02-24T10:20:10.141Z,22.70
2019-02-24T10:21:10.137Z,22.69
2019-02-24T10:22:10.129Z,23.83
2019-02-24T10:23:10.366Z,23.94
2019-02-24T10:24:10.122Z,24.02
2019-02-24T10:25:10.135Z,24.11
2019-02-24T10:26:10.110Z,23.81
2019-02-24T10:27:10.108Z,25.28
2019-02-24T10:28:10.154Z,23.75
2019-02-24T10:29:10.099Z,23.94
2019-02-24T10:30:10.100Z,23.75
2019-02-24T10:31:19.401Z,22.87
2019-02-24T10:32:10.083Z,23.36
2019-02-24T10:33:10.082Z,22.20
2019-02-24T10:34:10.076Z,21.82
2019-02-24T10:35:10.070Z,22.87
2019-02-24T10:36:10.063Z,24.04
2019-02-24T10:37:10.065Z,24.14
2019-02-24T10:38:10.067Z,23.08
2019-02-24T10:39:10.049Z,22.70
2019-02-24T10:40:12.315Z,21.71
2019-02-24T10:41:10.043Z,23.81
2019-02-24T10:42:10.034Z,24.50
2019-02-24T10:43:10.026Z,24.41
2019-02-24T10:44:10.020Z,25.29
2019-02-24T10:45:10.014Z,23.85
2019-02-24T10:46:11.388Z,23.66
2019-02-24T10:47:10.006Z,22.22
2019-02-24T10:48:13.976Z,22.23
2019-02-24T10:49:10.000Z,23.39
2019-02-24T10:50:09.985Z,23.00
2019-02-24T10:51:09.978Z,22.23
2019-02-24T10:52:09.970Z,22.23
2019-02-24T10:53:09.967Z,21.35
2019-02-24T10:54:09.962Z,20.67
2019-02-24T10:55:09.953Z,20.19
2019-02-24T10:56:09.952Z,20.18
2019-02-24T10:57:12.954Z,20.26
2019-02-24T10:58:09.945Z,21.13
2019-02-24T10:59:09.927Z,21.04
2019-02-24T11:00:09.922Z,21.91
2019-02-24T11:01:09.916Z,21.92
2019-02-24T11:02:09.909Z,20.28
2019-02-24T11:03:09.909Z,19.79
2019-02-24T11:04:09.898Z,20.18
2019-02-24T11:05:09.889Z,19.70
2019-02-24T11:06:09.883Z,20.66
2019-02-24T11:07:09.889Z,20.66
2019-02-24T11:08:09.869Z,20.86
2019-02-24T11:09:09.873Z,20.16
2019-02-24T11:10:09.861Z,20.45
2019-02-24T11:11:09.850Z,21.04
2019-02-24T11:12:09.852Z,21.33
2019-02-24T11:13:09.842Z,22.88
2019-02-24T11:14:09.833Z,21.44
2019-02-24T11:15:09.854Z,21.14
2019-02-24T11:16:09.821Z,21.62
2019-02-24T11:17:09.813Z,21.62
2019-02-24T11:18:09.803Z,21.42
2019-02-24T11:19:09.800Z,21.50
2019-02-24T11:20:09.790Z,22.27
2019-02-24T11:21:09.784Z,22.26
2019-02-24T11:22:09.778Z,22.84
2019-02-24T11:23:09.772Z,22.84
2019-02-24T11:24:09.763Z,23.24
2019-02-24T11:25:09.770Z,22.16
2019-02-24T11:26:09.761Z,21.79
2019-02-24T11:27:09.754Z,21.70
2019-02-24T11:28:09.745Z,21.03
2019-02-24T11:29:09.726Z,21.31
2019-02-24T11:30:09.720Z,20.83
2019-02-24T11:31:09.723Z,21.51
2019-02-24T11:32:09.714Z,21.52
2019-02-24T11:33:09.696Z,21.52
2019-02-24T11:34:09.693Z,21.04
2019-02-24T11:35:09.684Z,21.44
2019-02-24T11:36:09.685Z,21.53
2019-02-24T11:37:09.674Z,21.04
2019-02-24T11:38:09.672Z,21.04
2019-02-24T11:39:09.658Z,21.92
2019-02-24T11:40:09.646Z,20.86
2019-02-24T11:41:09.635Z,19.98
2019-02-24T11:42:09.633Z,20.56
2019-02-24T11:43:09.625Z,20.95
2019-02-24T11:44:09.613Z,20.08
2019-02-24T11:45:09.611Z,20.09
2019-02-24T11:46:09.605Z,19.80
2019-02-24T11:47:09.597Z,20.09
2019-02-24T11:48:09.599Z,20.10
2019-02-24T11:49:09.582Z,20.50
2019-02-24T11:50:09.574Z,20.68
2019-02-24T11:51:09.563Z,21.45
2019-02-24T11:52:09.556Z,20.50
2019-02-24T11:53:09.547Z,21.17
2019-02-24T11:54:09.543Z,19.03
2019-02-24T11:55:09.540Z,18.06
2019-02-24T11:56:09.524Z,18.55
2019-02-24T11:57:09.516Z,18.54
2019-02-24T11:58:09.521Z,17.96
2019-02-24T11:59:09.516Z,17.96
2019-02-24T12:00:09.499Z,18.73
2019-02-24T12:01:09.493Z,19.60
2019-02-24T12:02:09.479Z,21.15
2019-02-24T12:03:09.471Z,21.44
2019-02-24T12:04:09.471Z,21.06
2019-02-24T12:05:09.465Z,20.67
2019-02-24T12:06:09.472Z,21.64
2019-02-24T12:07:09.449Z,22.31
2019-02-24T12:08:09.435Z,21.14
2019-02-24T12:09:09.426Z,23.08
2019-02-24T12:10:09.426Z,21.23
2019-02-24T12:11:09.412Z,21.13
2019-02-24T12:12:09.406Z,21.42
2019-02-24T12:13:09.401Z,22.67
2019-02-24T12:14:09.400Z,22.58
2019-02-24T12:15:09.381Z,22.39
2019-02-24T12:16:09.380Z,21.33
2019-02-24T12:17:09.402Z,21.42
2019-02-24T12:18:09.359Z,21.53
2019-02-24T12:19:09.350Z,21.24
2019-02-24T12:20:09.342Z,20.95
2019-02-24T12:21:10.750Z,21.54
2019-02-24T12:22:09.326Z,22.70
2019-02-24T12:23:09.330Z,22.22
2019-02-24T12:24:09.314Z,21.54
2019-02-24T12:25:09.306Z,20.67
2019-02-24T12:26:09.295Z,20.28
2019-02-24T12:27:09.288Z,21.25
2019-02-24T12:28:09.283Z,21.83
2019-02-24T12:29:09.272Z,21.45
2019-02-24T12:30:09.265Z,21.35
2019-02-24T12:31:09.262Z,21.36
2019-02-24T12:32:09.246Z,20.29
2019-02-24T12:33:09.242Z,20.21
2019-02-24T12:34:09.240Z,20.01
2019-02-24T12:35:09.225Z,20.49
2019-02-24T12:36:09.218Z,20.48
2019-02-24T12:37:09.208Z,19.42
2019-02-24T12:38:09.203Z,19.01
2019-02-24T12:39:09.193Z,19.02
2019-02-24T12:40:09.186Z,19.40
2019-02-24T12:41:09.178Z,19.98
2019-02-24T12:42:09.174Z,20.86
2019-02-24T12:43:09.165Z,20.86
2019-02-24T12:44:09.153Z,20.09
2019-02-24T12:45:09.155Z,19.91
2019-02-24T12:46:09.140Z,18.36
2019-02-24T12:47:09.129Z,17.68
2019-02-24T12:48:09.124Z,17.78
2019-02-24T12:49:09.112Z,17.78
2019-02-24T12:50:09.104Z,18.17
2019-02-24T12:51:09.103Z,17.68
2019-02-24T12:52:09.102Z,17.68